Mont Belvieu, Texas
Current Conditions -  °F | °C
As of 3:50 PM on Sunday 25 Jan 2015 (Local Time) from KEFD Reporting Station
Broken Clouds Broken Clouds  
Wind Chill: 70°   Ceiling: 25000
Heat Index: 70°   Visibility: 10mi
Dew Point: 43°   Wind: 13mph
Humidity: 38%   Direction: 270°W
Pressure: 30.02"   Gusts: NA
Location:  29.85°N, 94.89°W
Report Text: KEFD 252150Z 27011KT 10SM BKN250 21/06 A3002
Loading
Personal Weather Stations






























Interactive Weather Map New forecast layout! Learn more

10-Day Weather Forecast

Advertisements
Track Severe Weather on mobile